Main page
METAR-TAF:

METAR-TAF

Airports :

Marshfield Municipal Airport

Marshfield, Wisconsin, United States

latitude: 44-38-17N, longitude: 090-11-15W, elevation: 1276 ft

Current weather observation

The report was made 33 minutes ago, at 20:54 UTC
Wind 24 mph from the South with gusts up to 32 mph
Temperature 52°F
Humidity 28%
Pressure 29.89 in. Hg
Visibility: 10 miles
Clear sky

METAR: KMFI 012054Z AUTO 17021G28KT 10SM CLR 11/M07 A2989 RMK AO2 PK WND 19029/2012 SLP132 T01111072 58017

Time: 15:27 (21:27 UTC)


TAF: missing

Weather observations and forecasts of more than 4000 airports (METAR and TAF reports).

The available stations are represented by yellow and red dots on the map.

Hover mouse over dot to see the name of the station.

Then click to see weather observations and forecasts.

To change the map : click on the green buttons with a black cross to zoom in, on the green button with a dash to zoom out, or on the green arrows for adjacent maps.


METAR-TAF: